createdAt,value
2018-05-31T00:01:42.672Z,66.78
2018-05-31T00:04:10.069Z,67.00
2018-05-31T00:06:45.585Z,66.93
2018-05-31T00:09:13.809Z,66.92
2018-05-31T00:11:41.193Z,67.32
2018-05-31T00:14:11.050Z,67.56
2018-05-31T00:16:38.439Z,67.74
2018-05-31T00:19:05.851Z,67.41
2018-05-31T00:21:35.896Z,67.57
2018-05-31T00:24:06.318Z,67.68
2018-05-31T00:26:35.409Z,67.97
2018-05-31T00:29:03.533Z,68.21
2018-05-31T00:31:32.733Z,67.94
2018-05-31T00:34:00.850Z,67.99
2018-05-31T00:36:29.817Z,68.33
2018-05-31T00:39:01.115Z,68.36
2018-05-31T00:41:29.295Z,68.50
2018-05-31T00:43:57.502Z,68.63
2018-05-31T00:46:25.224Z,69.00
2018-05-31T00:48:53.124Z,69.14
2018-05-31T00:51:21.136Z,69.11
2018-05-31T00:53:50.503Z,69.39
2018-05-31T00:56:19.645Z,69.45
2018-05-31T00:58:47.829Z,69.65
2018-05-31T01:01:16.182Z,69.49
2018-05-31T01:03:44.693Z,69.78
2018-05-31T01:06:12.395Z,69.80
2018-05-31T01:08:42.482Z,70.03
2018-05-31T01:11:10.341Z,70.45
2018-05-31T01:13:39.084Z,70.49
2018-05-31T01:16:06.467Z,70.86
2018-05-31T01:18:34.729Z,71.27
2018-05-31T01:21:02.129Z,71.32
2018-05-31T01:23:30.777Z,71.45
2018-05-31T01:25:58.963Z,71.11
2018-05-31T01:28:26.392Z,71.42
2018-05-31T01:30:54.430Z,71.03
2018-05-31T01:33:21.833Z,70.92
2018-05-31T01:35:49.231Z,71.01
2018-05-31T01:38:29.954Z,71.15
2018-05-31T01:41:01.510Z,71.44
2018-05-31T01:43:28.941Z,71.31
2018-05-31T01:45:56.323Z,71.17
2018-05-31T01:48:23.710Z,71.02
2018-05-31T01:50:51.084Z,71.37
2018-05-31T01:53:18.482Z,73.45
2018-05-31T01:55:45.859Z,74.84
2018-05-31T01:58:13.252Z,74.60
2018-05-31T02:00:40.644Z,73.59
2018-05-31T02:03:08.036Z,74.02
2018-05-31T02:05:35.431Z,75.51
2018-05-31T02:08:02.820Z,76.62
2018-05-31T02:10:30.209Z,75.86
2018-05-31T02:12:57.591Z,74.92
2018-05-31T02:15:24.970Z,74.53
2018-05-31T02:17:52.375Z,75.62
2018-05-31T02:20:19.750Z,75.77
2018-05-31T02:22:47.141Z,75.09
2018-05-31T02:25:14.632Z,74.62
2018-05-31T02:27:42.017Z,74.38
2018-05-31T02:30:09.397Z,74.23
2018-05-31T02:32:36.792Z,74.32
2018-05-31T02:35:04.172Z,75.22
2018-05-31T02:37:31.550Z,75.77
2018-05-31T02:39:58.940Z,75.85
2018-05-31T02:42:26.310Z,76.37
2018-05-31T02:44:53.705Z,76.49
2018-05-31T02:47:21.104Z,76.44
2018-05-31T02:49:48.489Z,76.62
2018-05-31T02:52:15.867Z,76.47
2018-05-31T02:54:43.259Z,76.43
2018-05-31T02:57:10.637Z,76.64
2018-05-31T02:59:38.023Z,77.21
2018-05-31T03:02:05.407Z,76.95
2018-05-31T03:04:32.797Z,76.84
2018-05-31T03:07:00.176Z,76.81
2018-05-31T03:09:27.571Z,76.93
2018-05-31T03:11:54.947Z,77.82
2018-05-31T03:14:22.340Z,77.45
2018-05-31T03:16:49.715Z,77.24
2018-05-31T03:19:17.095Z,77.41
2018-05-31T03:21:44.482Z,77.41
2018-05-31T03:24:11.895Z,76.62
2018-05-31T03:26:39.279Z,75.84
2018-05-31T03:29:06.672Z,75.22
2018-05-31T03:31:34.058Z,74.49
2018-05-31T03:34:01.446Z,75.07
2018-05-31T03:36:28.819Z,75.69
2018-05-31T03:38:56.232Z,76.39
2018-05-31T03:41:23.616Z,76.53
2018-05-31T03:43:51.009Z,76.00
2018-05-31T03:46:18.382Z,76.37
2018-05-31T03:48:45.767Z,77.07
2018-05-31T03:51:13.145Z,76.79
2018-05-31T03:53:40.523Z,76.64
2018-05-31T03:56:07.915Z,76.37
2018-05-31T03:58:35.301Z,75.48
2018-05-31T04:01:02.687Z,75.58
2018-05-31T04:03:30.100Z,74.23
2018-05-31T04:05:57.479Z,74.39
2018-05-31T04:08:24.865Z,74.05
2018-05-31T04:10:52.247Z,74.02
2018-05-31T04:13:19.648Z,74.16
2018-05-31T04:15:47.037Z,74.09
2018-05-31T04:18:14.443Z,74.15
2018-05-31T04:20:41.832Z,73.88
2018-05-31T04:23:09.224Z,73.75
2018-05-31T04:25:36.612Z,73.33
2018-05-31T04:28:03.995Z,73.39
2018-05-31T04:30:31.377Z,72.50
2018-05-31T04:32:58.763Z,73.46
2018-05-31T04:35:26.158Z,73.28
2018-05-31T04:37:53.536Z,74.61
2018-05-31T04:40:20.946Z,74.21
2018-05-31T04:42:48.349Z,72.02
2018-05-31T04:45:15.726Z,70.73
2018-05-31T04:47:43.110Z,70.41
2018-05-31T04:50:10.501Z,70.23
2018-05-31T04:52:37.888Z,71.39
2018-05-31T04:55:05.272Z,71.37
2018-05-31T04:57:32.660Z,71.31
2018-05-31T05:00:00.238Z,70.22
2018-05-31T05:02:27.608Z,70.30
2018-05-31T05:04:55.025Z,69.91
2018-05-31T05:07:22.403Z,69.86
2018-05-31T05:09:49.791Z,69.91
2018-05-31T05:12:17.171Z,69.87
2018-05-31T05:14:44.571Z,69.89
2018-05-31T05:17:11.947Z,69.81
2018-05-31T05:19:39.329Z,69.60
2018-05-31T05:22:06.704Z,69.93
2018-05-31T05:24:34.095Z,69.91
2018-05-31T05:27:01.474Z,69.71
2018-05-31T05:29:28.863Z,68.52
2018-05-31T05:31:56.255Z,68.39
2018-05-31T05:34:23.632Z,68.03
2018-05-31T05:36:51.025Z,67.17
2018-05-31T05:39:19.104Z,67.14
2018-05-31T05:41:46.501Z,67.09
2018-05-31T05:44:13.894Z,67.01
2018-05-31T05:46:41.280Z,67.25
2018-05-31T05:49:08.655Z,67.19
2018-05-31T05:51:36.049Z,67.48
2018-05-31T05:54:03.433Z,67.56
2018-05-31T05:56:30.828Z,67.31
2018-05-31T05:58:58.236Z,66.97
2018-05-31T06:01:25.632Z,67.31
2018-05-31T06:03:53.011Z,67.10
2018-05-31T06:06:20.401Z,66.63
2018-05-31T06:08:47.783Z,66.00
2018-05-31T06:11:15.187Z,67.16
2018-05-31T06:13:42.574Z,67.01
2018-05-31T06:16:09.951Z,65.52
2018-05-31T06:18:37.334Z,65.51
2018-05-31T06:21:04.722Z,67.53
2018-05-31T06:23:32.110Z,65.00
2018-05-31T06:25:59.489Z,66.49
2018-05-31T06:28:26.875Z,65.65
2018-05-31T06:30:54.249Z,68.85
2018-05-31T06:33:21.626Z,69.44
2018-05-31T06:35:49.038Z,69.74
2018-05-31T06:38:16.460Z,69.58
2018-05-31T06:40:43.795Z,66.23
2018-05-31T06:43:11.190Z,65.75
2018-05-31T06:45:38.581Z,62.69
2018-05-31T06:48:05.955Z,61.43
2018-05-31T06:50:33.340Z,60.88
2018-05-31T06:53:00.720Z,60.87
2018-05-31T06:55:28.112Z,60.72
2018-05-31T06:57:55.506Z,61.16
2018-05-31T07:00:22.910Z,61.62
2018-05-31T07:02:50.281Z,62.35
2018-05-31T07:05:17.671Z,61.75
2018-05-31T07:07:45.056Z,62.51
2018-05-31T07:10:12.438Z,63.48
2018-05-31T07:12:39.828Z,64.07
2018-05-31T07:15:07.212Z,64.11
2018-05-31T07:17:34.591Z,63.54
2018-05-31T07:20:01.975Z,63.84
2018-05-31T07:22:29.370Z,64.50
2018-05-31T07:24:56.765Z,63.10
2018-05-31T07:27:24.133Z,61.93
2018-05-31T07:29:51.528Z,62.64
2018-05-31T07:32:18.938Z,60.40
2018-05-31T07:34:46.308Z,59.98
2018-05-31T07:37:13.671Z,60.02
2018-05-31T07:39:41.083Z,59.30
2018-05-31T07:42:08.462Z,60.98
2018-05-31T07:44:35.862Z,58.51
2018-05-31T07:47:03.250Z,59.00
2018-05-31T07:49:30.644Z,57.77
2018-05-31T07:51:58.033Z,57.91
2018-05-31T07:54:25.474Z,58.40
2018-05-31T07:56:52.827Z,57.34
2018-05-31T07:59:20.221Z,57.31
2018-05-31T08:01:47.603Z,57.80
2018-05-31T08:04:14.998Z,57.23
2018-05-31T08:06:42.398Z,57.59
2018-05-31T08:09:09.791Z,58.21
2018-05-31T08:11:37.172Z,57.81
2018-05-31T08:14:04.569Z,57.60
2018-05-31T08:16:31.951Z,57.96
2018-05-31T08:18:59.361Z,58.06
2018-05-31T08:21:26.736Z,57.96
2018-05-31T08:23:54.125Z,59.56
2018-05-31T08:26:21.509Z,59.07
2018-05-31T08:28:48.893Z,59.46
2018-05-31T08:31:16.274Z,59.54
2018-05-31T08:33:43.658Z,59.51
2018-05-31T08:36:11.060Z,58.98
2018-05-31T08:38:38.442Z,58.95
2018-05-31T08:41:05.824Z,58.24
2018-05-31T08:43:33.203Z,57.82
2018-05-31T08:46:01.960Z,57.86
2018-05-31T08:48:29.333Z,56.51
2018-05-31T08:50:56.747Z,56.28
2018-05-31T08:53:24.108Z,56.99
2018-05-31T08:55:51.527Z,57.17
2018-05-31T08:58:18.895Z,56.47
2018-05-31T09:00:46.279Z,57.23
2018-05-31T09:03:13.756Z,56.23
2018-05-31T09:05:41.127Z,55.47
2018-05-31T09:08:08.512Z,58.17
2018-05-31T09:10:35.907Z,56.10
2018-05-31T09:13:03.295Z,55.91
2018-05-31T09:15:30.683Z,56.05
2018-05-31T09:17:58.075Z,56.05
2018-05-31T09:20:25.456Z,55.39
2018-05-31T09:22:52.850Z,56.55
2018-05-31T09:25:20.231Z,55.50
2018-05-31T09:27:47.612Z,56.46
2018-05-31T09:30:14.999Z,57.40
2018-05-31T09:32:42.380Z,57.29
2018-05-31T09:35:09.798Z,57.28
2018-05-31T09:37:37.179Z,57.46
2018-05-31T09:40:04.581Z,57.27
2018-05-31T09:42:32.065Z,58.83
2018-05-31T09:44:59.496Z,58.01
2018-05-31T09:47:26.908Z,57.26
2018-05-31T09:49:54.314Z,57.19
2018-05-31T09:52:21.718Z,56.98
2018-05-31T09:54:49.138Z,56.57
2018-05-31T09:57:16.536Z,56.38
2018-05-31T09:59:43.925Z,56.21
2018-05-31T10:02:11.324Z,55.71
2018-05-31T10:04:38.712Z,56.30
2018-05-31T10:07:06.100Z,56.68
2018-05-31T10:09:33.493Z,56.61
2018-05-31T10:12:00.884Z,56.76
2018-05-31T10:14:28.267Z,56.54
2018-05-31T10:16:55.642Z,55.67
2018-05-31T10:19:23.035Z,57.28
2018-05-31T10:21:50.420Z,56.76
2018-05-31T10:24:17.807Z,56.86
2018-05-31T10:26:45.193Z,56.68
2018-05-31T10:29:12.579Z,55.95
2018-05-31T10:31:39.967Z,56.20
2018-05-31T10:34:07.344Z,56.61
2018-05-31T10:36:34.723Z,55.90
2018-05-31T10:39:02.114Z,56.22
2018-05-31T10:41:29.504Z,55.90
2018-05-31T10:43:56.887Z,55.29
2018-05-31T10:46:24.318Z,54.92
2018-05-31T10:48:51.676Z,54.78
2018-05-31T10:51:19.075Z,55.02
2018-05-31T10:53:46.500Z,54.63
2018-05-31T10:56:13.880Z,54.97
2018-05-31T10:58:41.271Z,54.73
2018-05-31T11:01:08.686Z,54.34
2018-05-31T11:03:36.075Z,55.02
2018-05-31T11:06:03.486Z,54.92
2018-05-31T11:08:30.861Z,56.93
2018-05-31T11:10:58.262Z,56.41
2018-05-31T11:13:25.647Z,54.91
2018-05-31T11:15:53.079Z,56.57
2018-05-31T11:18:20.456Z,54.44
2018-05-31T11:20:47.858Z,52.61
2018-05-31T11:23:15.231Z,52.31
2018-05-31T11:25:42.619Z,51.55
2018-05-31T11:28:10.020Z,51.90
2018-05-31T11:30:37.410Z,51.71
2018-05-31T11:33:04.793Z,54.10
2018-05-31T11:35:32.183Z,54.65
2018-05-31T11:37:59.566Z,52.60
2018-05-31T11:40:26.957Z,53.15
2018-05-31T11:42:54.393Z,53.22
2018-05-31T11:45:21.785Z,54.47
2018-05-31T11:47:49.161Z,52.18
2018-05-31T11:50:16.542Z,55.75
2018-05-31T11:52:43.922Z,54.47
2018-05-31T11:55:11.326Z,54.60
2018-05-31T11:57:38.699Z,55.47
2018-05-31T12:00:06.088Z,54.43
2018-05-31T12:02:33.493Z,54.50
2018-05-31T12:05:00.901Z,52.60
2018-05-31T12:07:28.280Z,53.57
2018-05-31T12:09:55.674Z,52.58
2018-05-31T12:12:23.049Z,52.30
2018-05-31T12:14:50.609Z,49.74
2018-05-31T12:17:17.995Z,50.65
2018-05-31T12:19:45.472Z,52.69
2018-05-31T12:22:12.869Z,53.40
2018-05-31T12:24:40.243Z,54.13
2018-05-31T12:27:07.635Z,55.71
2018-05-31T12:29:35.011Z,51.07
2018-05-31T12:32:02.404Z,51.90
2018-05-31T12:34:29.784Z,52.39
2018-05-31T12:36:57.207Z,52.58
2018-05-31T12:39:24.572Z,53.30
2018-05-31T12:41:52.018Z,50.29
2018-05-31T12:44:19.390Z,51.21
2018-05-31T12:46:46.796Z,51.02
2018-05-31T12:49:14.188Z,50.45
2018-05-31T12:51:41.572Z,51.75
2018-05-31T12:54:08.965Z,48.61
2018-05-31T12:56:36.354Z,47.72
2018-05-31T12:59:03.738Z,48.73
2018-05-31T13:01:31.125Z,48.60
2018-05-31T13:03:58.500Z,49.25
2018-05-31T13:06:25.949Z,49.34
2018-05-31T13:08:53.372Z,49.44
2018-05-31T13:11:20.780Z,50.02
2018-05-31T13:13:48.172Z,48.42
2018-05-31T13:16:15.573Z,48.65
2018-05-31T13:18:42.975Z,48.85
2018-05-31T13:21:10.356Z,49.30
2018-05-31T13:23:37.748Z,49.72
2018-05-31T13:26:05.132Z,48.75
2018-05-31T13:28:32.515Z,48.77
2018-05-31T13:30:59.908Z,48.67
2018-05-31T13:33:27.322Z,48.21
2018-05-31T13:35:54.691Z,47.99
2018-05-31T13:38:22.070Z,48.35
2018-05-31T13:40:49.460Z,47.55
2018-05-31T13:43:16.836Z,48.32
2018-05-31T13:45:44.221Z,47.33
2018-05-31T13:48:11.603Z,47.14
2018-05-31T13:50:39.128Z,46.91
2018-05-31T13:53:06.505Z,46.90
2018-05-31T13:55:33.890Z,46.85
2018-05-31T13:58:01.293Z,46.12
2018-05-31T14:00:28.680Z,45.48
2018-05-31T14:02:56.059Z,45.76
2018-05-31T14:05:23.435Z,46.17
2018-05-31T14:07:50.813Z,44.77
2018-05-31T14:10:18.197Z,44.72
2018-05-31T14:12:45.576Z,45.79
2018-05-31T14:15:12.964Z,47.30
2018-05-31T14:17:40.373Z,47.50
2018-05-31T14:20:07.759Z,48.14
2018-05-31T14:22:35.145Z,48.74
2018-05-31T14:25:02.527Z,49.89
2018-05-31T14:27:29.921Z,50.33
2018-05-31T14:29:57.299Z,51.03
2018-05-31T14:32:24.695Z,50.89
2018-05-31T14:34:52.081Z,50.53
2018-05-31T14:37:19.495Z,50.53
2018-05-31T14:39:46.873Z,49.63
2018-05-31T14:42:14.270Z,49.91
2018-05-31T14:44:41.715Z,50.05
2018-05-31T14:47:09.146Z,50.17
2018-05-31T14:49:36.560Z,50.59
2018-05-31T14:52:03.948Z,50.37
2018-05-31T14:54:31.340Z,49.85
2018-05-31T14:56:58.747Z,48.15
2018-05-31T14:59:26.195Z,47.60
2018-05-31T15:01:53.611Z,48.20
2018-05-31T15:04:21.031Z,47.99
2018-05-31T15:06:48.452Z,48.51
2018-05-31T15:09:15.844Z,48.60
2018-05-31T15:11:43.266Z,48.02
2018-05-31T15:14:10.835Z,48.28
2018-05-31T15:16:38.245Z,48.89
2018-05-31T15:19:05.819Z,50.31
2018-05-31T15:21:33.313Z,48.86
2018-05-31T15:24:00.716Z,49.27
2018-05-31T15:26:28.127Z,49.26
2018-05-31T15:28:55.520Z,49.27
2018-05-31T15:31:22.987Z,48.26
2018-05-31T15:33:50.438Z,47.98
2018-05-31T15:36:17.867Z,47.92
2018-05-31T15:38:45.282Z,48.55
2018-05-31T15:41:12.684Z,48.21
2018-05-31T15:43:40.082Z,48.07
2018-05-31T15:46:07.513Z,48.38
2018-05-31T15:48:34.944Z,48.11
2018-05-31T15:51:02.338Z,49.40
2018-05-31T15:53:29.756Z,47.53
2018-05-31T15:55:57.135Z,48.18
2018-05-31T15:58:24.550Z,47.59
2018-05-31T16:00:51.980Z,46.43
2018-05-31T16:03:19.381Z,47.14
2018-05-31T16:05:46.795Z,47.36
2018-05-31T16:08:14.995Z,45.83
2018-05-31T16:10:43.324Z,46.29
2018-05-31T16:13:10.701Z,46.39
2018-05-31T16:15:38.074Z,45.27
2018-05-31T16:18:05.476Z,44.88
2018-05-31T16:20:32.868Z,45.10
2018-05-31T16:23:00.272Z,45.15
2018-05-31T16:25:27.655Z,44.50
2018-05-31T16:27:55.048Z,44.94
2018-05-31T16:30:22.427Z,44.20
2018-05-31T16:32:49.804Z,44.02
2018-05-31T16:35:17.193Z,44.23
2018-05-31T16:37:44.567Z,43.36
2018-05-31T16:40:11.959Z,43.53
2018-05-31T16:42:39.351Z,42.23
2018-05-31T16:45:06.732Z,42.87
2018-05-31T16:47:34.131Z,42.86
2018-05-31T16:50:01.508Z,44.39
2018-05-31T16:52:28.887Z,44.89
2018-05-31T16:54:56.275Z,46.50
2018-05-31T16:57:23.659Z,45.18
2018-05-31T16:59:51.035Z,43.94
2018-05-31T17:02:18.428Z,43.09
2018-05-31T17:04:45.862Z,43.11
2018-05-31T17:07:13.195Z,41.73
2018-05-31T17:09:40.589Z,40.35
2018-05-31T17:12:07.975Z,39.63
2018-05-31T17:14:35.361Z,40.44
2018-05-31T17:17:02.739Z,40.68
2018-05-31T17:19:30.117Z,40.96
2018-05-31T17:21:57.759Z,40.55
2018-05-31T17:24:25.129Z,41.11
2018-05-31T17:26:52.539Z,41.25
2018-05-31T17:29:19.925Z,41.80
2018-05-31T17:31:47.336Z,42.05
2018-05-31T17:34:14.712Z,40.94
2018-05-31T17:36:42.163Z,41.87
2018-05-31T17:39:09.528Z,41.86
2018-05-31T17:41:36.940Z,42.55
2018-05-31T17:44:04.326Z,42.96
2018-05-31T17:46:31.723Z,44.52
2018-05-31T17:48:59.109Z,46.10
2018-05-31T17:51:26.499Z,47.86
2018-05-31T17:53:53.870Z,49.06
2018-05-31T17:56:21.263Z,49.08
2018-05-31T17:59:39.303Z,48.83
2018-05-31T18:02:06.904Z,49.97
2018-05-31T18:04:34.287Z,50.43
2018-05-31T18:07:01.765Z,51.46
2018-05-31T18:09:29.151Z,51.74
2018-05-31T18:11:56.561Z,52.40
2018-05-31T18:14:24.052Z,52.20
2018-05-31T18:16:51.446Z,52.87
2018-05-31T18:19:19.027Z,53.12
2018-05-31T18:21:46.520Z,53.79
2018-05-31T18:24:13.929Z,53.82
2018-05-31T18:26:41.360Z,53.90
2018-05-31T18:29:08.735Z,54.29
2018-05-31T18:31:36.145Z,54.50
2018-05-31T18:34:04.414Z,55.00
2018-05-31T18:36:31.838Z,54.98
2018-05-31T18:38:59.595Z,55.59
2018-05-31T18:41:27.473Z,56.05
2018-05-31T18:43:55.175Z,56.04
2018-05-31T18:46:22.603Z,56.68
2018-05-31T18:48:50.008Z,57.63
2018-05-31T18:51:20.251Z,57.24
2018-05-31T18:53:47.627Z,57.07
2018-05-31T18:56:15.009Z,57.44
2018-05-31T18:58:42.395Z,57.81
2018-05-31T19:01:09.768Z,58.20
2018-05-31T19:03:37.156Z,57.93
2018-05-31T19:06:04.540Z,58.76
2018-05-31T19:08:31.940Z,58.89
2018-05-31T19:10:59.379Z,58.83
2018-05-31T19:13:32.292Z,58.66
2018-05-31T19:15:59.805Z,58.71
2018-05-31T19:18:32.751Z,58.28
2018-05-31T19:21:00.365Z,58.42
2018-05-31T19:23:27.879Z,58.83
2018-05-31T19:25:55.270Z,58.92
2018-05-31T19:28:22.701Z,59.08
2018-05-31T19:30:55.647Z,58.92
2018-05-31T19:33:23.250Z,59.23
2018-05-31T19:35:56.197Z,59.80
2018-05-31T19:38:23.637Z,60.03
2018-05-31T19:40:51.010Z,60.75
2018-05-31T19:43:23.994Z,60.84
2018-05-31T19:45:51.397Z,61.37
2018-05-31T19:48:18.807Z,61.77
2018-05-31T19:50:46.227Z,61.88
2018-05-31T19:53:19.258Z,62.39
2018-05-31T19:55:46.836Z,62.74
2018-05-31T19:58:19.964Z,63.29
2018-05-31T20:00:53.083Z,63.33
2018-05-31T20:03:26.068Z,63.55
2018-05-31T20:05:53.466Z,63.36
2018-05-31T20:08:20.898Z,64.04
2018-05-31T20:10:48.354Z,64.24
2018-05-31T20:13:15.846Z,64.24
2018-05-31T20:15:43.522Z,64.49
2018-05-31T20:18:10.958Z,64.79
2018-05-31T20:20:38.372Z,65.51
2018-05-31T20:23:05.798Z,66.26
2018-05-31T20:25:33.297Z,66.50
2018-05-31T20:28:00.805Z,66.18
2018-05-31T20:30:29.979Z,66.30
2018-05-31T20:32:57.428Z,66.32
2018-05-31T20:35:24.865Z,67.03
2018-05-31T20:37:52.251Z,66.74
2018-05-31T20:40:19.761Z,66.95
2018-05-31T20:42:47.152Z,67.37
2018-05-31T20:45:14.544Z,67.60
2018-05-31T20:47:41.973Z,67.66
2018-05-31T20:50:09.383Z,67.55
2018-05-31T20:52:36.822Z,67.85
2018-05-31T20:55:04.257Z,68.31
2018-05-31T20:57:31.668Z,68.51
2018-05-31T20:59:59.174Z,68.61
2018-05-31T21:02:26.457Z,68.75
2018-05-31T21:04:53.847Z,69.73
2018-05-31T21:07:21.244Z,70.20
2018-05-31T21:09:48.653Z,71.23
2018-05-31T21:12:16.037Z,72.62
2018-05-31T21:14:43.921Z,73.47
2018-05-31T21:17:11.351Z,75.17
2018-05-31T21:19:38.753Z,75.42
2018-05-31T21:22:06.736Z,76.18
2018-05-31T21:24:34.950Z,77.06
2018-05-31T21:27:02.352Z,77.46
2018-05-31T21:29:29.776Z,77.78
2018-05-31T21:31:57.228Z,77.70
2018-05-31T21:34:24.655Z,76.60
2018-05-31T21:36:52.099Z,75.96
2018-05-31T21:39:19.537Z,76.62
2018-05-31T21:41:46.941Z,76.34
2018-05-31T21:44:14.374Z,77.02
2018-05-31T21:46:41.821Z,76.95
2018-05-31T21:49:09.226Z,76.19
2018-05-31T21:51:36.627Z,77.23
2018-05-31T21:54:04.021Z,77.28
2018-05-31T21:56:31.508Z,77.22
2018-05-31T21:58:59.002Z,74.53
2018-05-31T22:01:26.429Z,73.68
2018-05-31T22:03:53.920Z,72.98
2018-05-31T22:06:21.385Z,72.76
2018-05-31T22:08:48.847Z,72.41
2018-05-31T22:11:16.266Z,72.11
2018-05-31T22:13:43.656Z,71.73
2018-05-31T22:16:11.083Z,71.62
2018-05-31T22:18:38.515Z,71.54
2018-05-31T22:21:05.909Z,71.86
2018-05-31T22:23:33.297Z,71.57
2018-05-31T22:26:00.691Z,71.10
2018-05-31T22:28:28.076Z,71.26
2018-05-31T22:30:55.467Z,71.02
2018-05-31T22:33:22.862Z,71.34
2018-05-31T22:35:50.294Z,71.26
2018-05-31T22:38:18.556Z,70.65
2018-05-31T22:40:45.982Z,70.26
2018-05-31T22:43:13.502Z,70.39
2018-05-31T22:45:40.943Z,70.37
2018-05-31T22:48:08.769Z,70.03
2018-05-31T22:50:36.263Z,70.29
2018-05-31T22:53:03.693Z,70.15
2018-05-31T22:55:31.083Z,69.90
2018-05-31T22:57:58.471Z,70.11
2018-05-31T23:00:25.843Z,70.58
2018-05-31T23:02:53.325Z,70.68
2018-05-31T23:05:20.654Z,71.03
2018-05-31T23:07:48.102Z,71.06
2018-05-31T23:10:15.476Z,70.96
2018-05-31T23:12:42.856Z,71.00
2018-05-31T23:15:10.278Z,71.17
2018-05-31T23:17:37.666Z,71.20
2018-05-31T23:20:05.055Z,71.34
2018-05-31T23:22:32.440Z,71.64
2018-05-31T23:24:59.830Z,71.67
2018-05-31T23:27:27.211Z,71.28
2018-05-31T23:29:54.612Z,71.46
2018-05-31T23:32:21.980Z,71.44
2018-05-31T23:34:49.364Z,71.43
2018-05-31T23:37:16.761Z,71.60
2018-05-31T23:39:44.143Z,71.79
2018-05-31T23:42:11.537Z,71.60
2018-05-31T23:44:38.922Z,71.85
2018-05-31T23:47:06.303Z,72.14
2018-05-31T23:49:33.721Z,72.26
2018-05-31T23:52:01.071Z,72.42
2018-05-31T23:54:28.476Z,72.60
2018-05-31T23:56:55.856Z,72.64
2018-05-31T23:59:23.258Z,72.60
